Time,TemperatureF,DewpointF,PressureIn,WindDirection,WindDirectionDegrees,WindSpeedMPH,WindSpeedGustMPH,Humidity,HourlyPrecipIn,Conditions,Clouds,dailyrainin,SoftwareType,DateUTC
2013-01-05 00:00:00,38.4,33.4,30.41,South,179,0.0,0.0,82,0.00,,,0.00,WeatherCatV1.02B3,2013-01-05 06:00:00,
2013-01-05 00:05:00,38.4,33.4,30.41,South,179,0.0,0.0,82,0.00,,,0.00,WeatherCatV1.02B3,2013-01-05 06:05:00,
2013-01-05 00:10:00,38.4,33.4,30.41,South,179,0.0,0.0,82,0.00,,,0.00,WeatherCatV1.02B3,2013-01-05 06:10:00,
2013-01-05 00:15:00,38.1,33.4,30.41,South,179,0.0,0.0,83,0.00,,,0.00,WeatherCatV1.02B3,2013-01-05 06:15:00,
2013-01-05 00:20:00,38.0,33.6,30.41,South,179,0.0,0.0,84,0.00,,,0.00,WeatherCatV1.02B3,2013-01-05 06:20:00,
2013-01-05 00:25:00,37.9,33.5,30.41,South,179,0.0,0.0,84,0.00,,,0.00,WeatherCatV1.02B3,2013-01-05 06:25:00,
2013-01-05 00:30:00,37.7,33.6,30.41,South,179,0.0,0.0,85,0.00,,,0.00,WeatherCatV1.02B3,2013-01-05 06:30:00,
2013-01-05 00:35:00,37.5,33.4,30.41,South,179,0.0,0.0,85,0.00,,,0.00,WeatherCatV1.02B3,2013-01-05 06:35:00,
2013-01-05 00:40:00,37.4,33.3,30.41,South,179,0.0,0.0,85,0.00,,,0.00,WeatherCatV1.02B3,2013-01-05 06:40:00,
2013-01-05 00:45:00,37.2,33.1,30.40,South,179,0.0,0.0,85,0.00,,,0.00,WeatherCatV1.02B3,2013-01-05 06:45:00,
2013-01-05 00:50:00,37.1,33.3,30.41,South,179,0.0,0.0,86,0.00,,,0.00,WeatherCatV1.02B3,2013-01-05 06:50:00,
2013-01-05 00:55:00,37.0,33.2,30.41,South,179,0.0,0.0,86,0.00,,,0.00,WeatherCatV1.02B3,2013-01-05 06:55:00,
2013-01-05 01:00:00,36.9,33.1,30.40,South,179,0.0,0.0,86,0.00,,,0.00,WeatherCatV1.02B3,2013-01-05 07:00:00,
2013-01-05 01:05:00,36.8,33.0,30.40,South,179,0.0,0.0,86,0.00,,,0.00,WeatherCatV1.02B3,2013-01-05 07:05:00,
2013-01-05 01:10:00,36.8,33.0,30.40,South,179,0.0,0.0,86,0.00,,,0.00,WeatherCatV1.02B3,2013-01-05 07:10:00,
2013-01-05 01:15:00,36.6,33.1,30.40,South,179,0.0,0.0,87,0.00,,,0.00,WeatherCatV1.02B3,2013-01-05 07:15:00,
2013-01-05 01:20:00,36.7,33.2,30.40,South,179,0.0,0.0,87,0.00,,,0.00,WeatherCatV1.02B3,2013-01-05 07:20:00,
2013-01-05 01:25:00,36.8,33.6,30.41,South,179,0.0,0.0,88,0.00,,,0.00,WeatherCatV1.02B3,2013-01-05 07:25:00,
2013-01-05 01:30:00,36.8,33.6,30.40,South,179,0.0,0.0,88,0.00,,,0.00,WeatherCatV1.02B3,2013-01-05 07:30:00,
2013-01-05 01:35:00,36.8,33.6,30.40,South,179,0.0,0.0,88,0.00,,,0.00,WeatherCatV1.02B3,2013-01-05 07:35:00,
2013-01-05 01:40:00,36.7,33.5,30.40,South,179,0.0,0.0,88,0.00,,,0.00,WeatherCatV1.02B3,2013-01-05 07:40:00,
2013-01-05 01:45:00,36.6,33.4,30.40,South,179,0.0,0.0,88,0.00,,,0.00,WeatherCatV1.02B3,2013-01-05 07:45:00,
2013-01-05 01:50:00,36.6,33.4,30.41,South,179,0.0,0.0,88,0.00,,,0.00,WeatherCatV1.02B3,2013-01-05 07:50:00,
2013-01-05 01:55:00,36.6,33.4,30.40,South,179,0.0,0.0,88,0.00,,,0.00,WeatherCatV1.02B3,2013-01-05 07:55:00,
2013-01-05 02:00:00,36.8,33.9,30.40,South,179,0.0,0.0,89,0.00,,,0.00,WeatherCatV1.02B3,2013-01-05 08:00:00,
2013-01-05 02:05:00,37.0,34.1,30.40,South,179,0.0,0.0,89,0.00,,,0.00,WeatherCatV1.02B3,2013-01-05 08:05:00,
2013-01-05 02:10:00,37.2,34.3,30.40,South,179,0.0,0.0,89,0.00,,,0.00,WeatherCatV1.02B3,2013-01-05 08:10:00,
2013-01-05 02:15:00,37.3,34.4,30.40,South,179,0.0,0.0,89,0.00,,,0.00,WeatherCatV1.02B3,2013-01-05 08:15:00,
2013-01-05 02:20:00,37.3,34.4,30.40,South,179,0.0,0.0,89,0.00,,,0.00,WeatherCatV1.02B3,2013-01-05 08:20:00,
2013-01-05 02:25:00,37.2,34.3,30.40,South,179,0.0,0.0,89,0.00,,,0.00,WeatherCatV1.02B3,2013-01-05 08:25:00,
2013-01-05 02:30:00,37.1,34.2,30.40,South,179,0.0,0.0,89,0.00,,,0.00,WeatherCatV1.02B3,2013-01-05 08:30:00,
2013-01-05 02:35:00,37.1,34.2,30.40,South,179,0.0,0.0,89,0.00,,,0.00,WeatherCatV1.02B3,2013-01-05 08:35:00,
2013-01-05 02:40:00,37.0,34.1,30.40,South,179,0.0,0.0,89,0.00,,,0.00,WeatherCatV1.02B3,2013-01-05 08:40:00,
2013-01-05 02:45:00,36.9,34.0,30.40,South,179,0.0,0.0,89,0.00,,,0.00,WeatherCatV1.02B3,2013-01-05 08:45:00,
2013-01-05 02:50:00,36.8,33.9,30.39,South,179,0.0,0.0,89,0.00,,,0.00,WeatherCatV1.02B3,2013-01-05 08:50:00,
2013-01-05 02:55:00,36.7,33.8,30.38,South,179,0.0,0.0,89,0.00,,,0.00,WeatherCatV1.02B3,2013-01-05 08:55:00,
2013-01-05 03:00:00,36.7,33.8,30.38,South,179,0.0,0.0,89,0.00,,,0.00,WeatherCatV1.02B3,2013-01-05 09:00:00,
2013-01-05 03:05:00,36.6,33.7,30.38,South,179,0.0,0.0,89,0.00,,,0.00,WeatherCatV1.02B3,2013-01-05 09:05:00,
2013-01-05 03:10:00,36.6,33.7,30.38,South,179,0.0,0.0,89,0.00,,,0.00,WeatherCatV1.02B3,2013-01-05 09:10:00,
2013-01-05 03:15:00,36.5,33.6,30.39,South,179,0.0,0.0,89,0.00,,,0.00,WeatherCatV1.02B3,2013-01-05 09:15:00,
2013-01-05 03:20:00,36.4,33.5,30.39,South,179,0.0,0.0,89,0.00,,,0.00,WeatherCatV1.02B3,2013-01-05 09:20:00,
2013-01-05 03:25:00,36.3,33.4,30.39,South,179,0.0,0.0,89,0.00,,,0.00,WeatherCatV1.02B3,2013-01-05 09:25:00,
2013-01-05 03:30:00,36.2,33.3,30.39,South,179,0.0,0.0,89,0.00,,,0.00,WeatherCatV1.02B3,2013-01-05 09:30:00,
2013-01-05 03:35:00,36.1,33.2,30.39,South,179,0.0,0.0,89,0.00,,,0.00,WeatherCatV1.02B3,2013-01-05 09:35:00,
2013-01-05 03:40:00,36.1,33.2,30.39,South,179,0.0,0.0,89,0.00,,,0.00,WeatherCatV1.02B3,2013-01-05 09:40:00,
2013-01-05 03:45:00,36.0,33.1,30.39,South,179,0.0,0.0,89,0.00,,,0.00,WeatherCatV1.02B3,2013-01-05 09:45:00,
2013-01-05 03:50:00,36.0,33.1,30.38,South,179,0.0,1.0,89,0.00,,,0.00,WeatherCatV1.02B3,2013-01-05 09:50:00,
2013-01-05 03:55:00,36.0,33.1,30.39,South,179,0.0,0.0,89,0.00,,,0.00,WeatherCatV1.02B3,2013-01-05 09:55:00,
2013-01-05 04:00:00,36.1,32.9,30.39,South,179,1.0,2.0,88,0.00,,,0.00,WeatherCatV1.02B3,2013-01-05 10:00:00,
2013-01-05 04:05:00,36.2,33.0,30.38,South,179,0.0,0.0,88,0.00,,,0.00,WeatherCatV1.02B3,2013-01-05 10:05:00,
2013-01-05 04:10:00,36.3,33.1,30.38,South,179,0.0,0.0,88,0.00,,,0.00,WeatherCatV1.02B3,2013-01-05 10:10:00,
2013-01-05 04:15:00,36.5,33.0,30.38,South,179,0.0,0.0,87,0.00,,,0.00,WeatherCatV1.02B3,2013-01-05 10:15:00,
2013-01-05 04:20:00,36.5,33.0,30.39,South,179,0.0,0.0,87,0.00,,,0.00,WeatherCatV1.02B3,2013-01-05 10:20:00,
2013-01-05 04:25:00,36.5,33.0,30.39,South,179,0.0,0.0,87,0.00,,,0.00,WeatherCatV1.02B3,2013-01-05 10:25:00,
2013-01-05 04:30:00,36.4,32.6,30.39,South,179,0.0,0.0,86,0.00,,,0.00,WeatherCatV1.02B3,2013-01-05 10:30:00,
2013-01-05 04:35:00,36.4,32.6,30.39,South,179,0.0,0.0,86,0.00,,,0.00,WeatherCatV1.02B3,2013-01-05 10:35:00,
2013-01-05 04:40:00,36.3,32.5,30.39,South,179,0.0,0.0,86,0.00,,,0.00,WeatherCatV1.02B3,2013-01-05 10:40:00,
2013-01-05 04:45:00,36.2,32.7,30.40,South,179,0.0,0.0,87,0.00,,,0.00,WeatherCatV1.02B3,2013-01-05 10:45:00,
2013-01-05 04:50:00,36.2,32.7,30.39,South,179,0.0,0.0,87,0.00,,,0.00,WeatherCatV1.02B3,2013-01-05 10:50:00,
2013-01-05 04:55:00,36.1,32.6,30.40,South,179,0.0,0.0,87,0.00,,,0.00,WeatherCatV1.02B3,2013-01-05 10:55:00,
2013-01-05 05:00:00,36.0,32.5,30.40,South,179,0.0,0.0,87,0.00,,,0.00,WeatherCatV1.02B3,2013-01-05 11:00:00,
2013-01-05 05:05:00,36.0,32.5,30.40,South,179,0.0,0.0,87,0.00,,,0.00,WeatherCatV1.02B3,2013-01-05 11:05:00,
2013-01-05 05:10:00,35.9,32.4,30.40,South,179,0.0,0.0,87,0.00,,,0.00,WeatherCatV1.02B3,2013-01-05 11:10:00,
2013-01-05 05:15:00,35.9,32.7,30.39,South,179,0.0,0.0,88,0.00,,,0.00,WeatherCatV1.02B3,2013-01-05 11:15:00,
2013-01-05 05:20:00,35.9,32.7,30.40,South,179,0.0,0.0,88,0.00,,,0.00,WeatherCatV1.02B3,2013-01-05 11:20:00,
2013-01-05 05:25:00,35.9,32.7,30.40,South,179,0.0,0.0,88,0.00,,,0.00,WeatherCatV1.02B3,2013-01-05 11:25:00,
2013-01-05 05:30:00,36.0,32.8,30.41,South,179,0.0,0.0,88,0.00,,,0.00,WeatherCatV1.02B3,2013-01-05 11:30:00,
2013-01-05 05:35:00,36.1,32.9,30.41,South,179,0.0,0.0,88,0.00,,,0.00,WeatherCatV1.02B3,2013-01-05 11:35:00,
2013-01-05 05:40:00,36.2,33.0,30.40,South,179,0.0,0.0,88,0.00,,,0.00,WeatherCatV1.02B3,2013-01-05 11:40:00,
2013-01-05 05:45:00,36.3,33.4,30.41,South,179,0.0,0.0,89,0.00,,,0.00,WeatherCatV1.02B3,2013-01-05 11:45:00,
2013-01-05 05:50:00,36.5,33.6,30.41,South,179,0.0,0.0,89,0.00,,,0.00,WeatherCatV1.02B3,2013-01-05 11:50:00,
2013-01-05 05:55:00,36.7,33.8,30.41,South,179,0.0,0.0,89,0.00,,,0.00,WeatherCatV1.02B3,2013-01-05 11:55:00,
2013-01-05 06:00:00,37.2,34.3,30.42,South,179,0.0,0.0,89,0.00,,,0.00,WeatherCatV1.02B3,2013-01-05 12:00:00,
2013-01-05 06:05:00,37.5,34.3,30.42,South,179,0.0,0.0,88,0.00,,,0.00,WeatherCatV1.02B3,2013-01-05 12:05:00,
2013-01-05 06:10:00,37.7,34.5,30.43,South,179,0.0,0.0,88,0.00,,,0.00,WeatherCatV1.02B3,2013-01-05 12:10:00,
2013-01-05 06:15:00,37.8,34.6,30.43,South,179,0.0,0.0,88,0.00,,,0.00,WeatherCatV1.02B3,2013-01-05 12:15:00,
2013-01-05 06:20:00,38.0,34.8,30.43,South,179,0.0,0.0,88,0.00,,,0.00,WeatherCatV1.02B3,2013-01-05 12:20:00,
2013-01-05 06:25:00,38.1,34.9,30.43,South,179,0.0,0.0,88,0.00,,,0.00,WeatherCatV1.02B3,2013-01-05 12:25:00,
2013-01-05 06:30:00,38.3,35.1,30.43,South,179,0.0,0.0,88,0.00,,,0.00,WeatherCatV1.02B3,2013-01-05 12:30:00,
2013-01-05 06:35:00,38.4,35.2,30.43,South,179,0.0,0.0,88,0.00,,,0.00,WeatherCatV1.02B3,2013-01-05 12:35:00,
2013-01-05 06:40:00,38.6,35.4,30.43,South,179,0.0,0.0,88,0.00,,,0.00,WeatherCatV1.02B3,2013-01-05 12:40:00,
2013-01-05 06:45:00,38.7,35.5,30.43,South,179,0.0,0.0,88,0.00,,,0.00,WeatherCatV1.02B3,2013-01-05 12:45:00,
2013-01-05 06:50:00,38.8,35.3,30.43,South,179,0.0,0.0,87,0.00,,,0.00,WeatherCatV1.02B3,2013-01-05 12:50:00,
2013-01-05 06:55:00,39.0,35.5,30.43,South,179,0.0,0.0,87,0.00,,,0.00,WeatherCatV1.02B3,2013-01-05 12:55:00,
2013-01-05 07:00:00,39.1,35.6,30.43,South,179,0.0,0.0,87,0.00,,,0.00,WeatherCatV1.02B3,2013-01-05 13:00:00,
2013-01-05 07:05:00,39.2,35.4,30.43,South,179,0.0,0.0,86,0.00,,,0.00,WeatherCatV1.02B3,2013-01-05 13:05:00,
2013-01-05 07:10:00,39.3,35.5,30.44,South,179,0.0,0.0,86,0.00,,,0.00,WeatherCatV1.02B3,2013-01-05 13:10:00,
2013-01-05 07:15:00,39.5,35.4,30.44,South,179,0.0,0.0,85,0.00,,,0.00,WeatherCatV1.02B3,2013-01-05 13:15:00,
2013-01-05 07:20:00,39.5,35.4,30.44,South,179,0.0,0.0,85,0.00,,,0.00,WeatherCatV1.02B3,2013-01-05 13:20:00,
2013-01-05 07:25:00,39.7,35.9,30.44,South,179,0.0,0.0,86,0.00,,,0.00,WeatherCatV1.02B3,2013-01-05 13:25:00,
2013-01-05 07:30:00,39.8,36.0,30.44,South,179,0.0,0.0,86,0.00,,,0.00,WeatherCatV1.02B3,2013-01-05 13:30:00,
2013-01-05 07:35:00,39.9,35.8,30.45,South,179,0.0,0.0,85,0.00,,,0.00,WeatherCatV1.02B3,2013-01-05 13:35:00,
2013-01-05 07:40:00,40.1,36.0,30.44,South,179,0.0,0.0,85,0.00,,,0.00,WeatherCatV1.02B3,2013-01-05 13:40:00,
2013-01-05 07:45:00,40.3,36.2,30.44,South,179,0.0,0.0,85,0.00,,,0.00,WeatherCatV1.02B3,2013-01-05 13:45:00,
2013-01-05 07:50:00,40.4,36.3,30.44,South,179,0.0,0.0,85,0.00,,,0.00,WeatherCatV1.02B3,2013-01-05 13:50:00,
2013-01-05 07:55:00,40.6,36.5,30.45,SE,140,0.0,0.0,85,0.00,,,0.00,WeatherCatV1.02B3,2013-01-05 13:55:00,
2013-01-05 08:00:00,40.6,36.5,30.45,SE,140,0.0,0.0,85,0.00,,,0.00,WeatherCatV1.02B3,2013-01-05 14:00:00,
2013-01-05 08:05:00,40.8,36.0,30.44,SE,140,0.0,0.0,83,0.00,,,0.00,WeatherCatV1.02B3,2013-01-05 14:05:00,
2013-01-05 08:10:00,41.0,36.2,30.44,SE,140,0.0,0.0,83,0.00,,,0.00,WeatherCatV1.02B3,2013-01-05 14:10:00,
2013-01-05 08:15:00,41.0,35.9,30.44,SE,140,0.0,0.0,82,0.00,,,0.00,WeatherCatV1.02B3,2013-01-05 14:15:00,
2013-01-05 08:20:00,41.1,35.7,30.44,SE,140,0.0,0.0,81,0.00,,,0.00,WeatherCatV1.02B3,2013-01-05 14:20:00,
2013-01-05 08:25:00,41.2,34.9,30.44,SE,140,0.0,0.0,78,0.00,,,0.00,WeatherCatV1.02B3,2013-01-05 14:25:00,
2013-01-05 08:30:00,41.4,34.7,30.45,SE,140,0.0,1.0,77,0.00,,,0.00,WeatherCatV1.02B3,2013-01-05 14:30:00,
2013-01-05 08:35:00,41.6,34.9,30.44,SE,140,0.0,1.0,77,0.00,,,0.00,WeatherCatV1.02B3,2013-01-05 14:35:00,
2013-01-05 08:40:00,41.8,34.8,30.44,SE,140,0.0,0.0,76,0.00,,,0.00,WeatherCatV1.02B3,2013-01-05 14:40:00,
2013-01-05 08:45:00,42.0,35.3,30.44,SE,140,0.0,1.0,77,0.00,,,0.00,WeatherCatV1.02B3,2013-01-05 14:45:00,
2013-01-05 08:50:00,42.3,35.6,30.44,SE,140,0.0,1.0,77,0.00,,,0.00,WeatherCatV1.02B3,2013-01-05 14:50:00,
2013-01-05 08:55:00,42.4,35.7,30.43,SE,140,0.0,0.0,77,0.00,,,0.00,WeatherCatV1.02B3,2013-01-05 14:55:00,
2013-01-05 09:00:00,42.6,35.9,30.44,SSE,148,0.0,4.0,77,0.00,,,0.00,WeatherCatV1.02B3,2013-01-05 15:00:00,
2013-01-05 09:05:00,42.7,36.3,30.44,SSE,148,0.0,0.0,78,0.00,,,0.00,WeatherCatV1.02B3,2013-01-05 15:05:00,
2013-01-05 09:10:00,42.8,36.4,30.45,SSE,148,0.0,1.0,78,0.00,,,0.00,WeatherCatV1.02B3,2013-01-05 15:10:00,
2013-01-05 09:15:00,42.8,35.8,30.45,ESE,115,0.0,0.0,76,0.00,,,0.00,WeatherCatV1.02B3,2013-01-05 15:15:00,
2013-01-05 09:20:00,43.0,36.0,30.46,ESE,115,0.0,0.0,76,0.00,,,0.00,WeatherCatV1.02B3,2013-01-05 15:20:00,
2013-01-05 09:25:00,43.3,36.6,30.45,ESE,115,0.0,2.0,77,0.00,,,0.00,WeatherCatV1.02B3,2013-01-05 15:25:00,
2013-01-05 09:30:00,43.6,36.2,30.45,ESE,115,0.0,0.0,75,0.00,,,0.00,WeatherCatV1.02B3,2013-01-05 15:30:00,
2013-01-05 09:35:00,43.7,36.3,30.45,ESE,115,0.0,0.0,75,0.00,,,0.00,WeatherCatV1.02B3,2013-01-05 15:35:00,
2013-01-05 09:40:00,43.7,36.6,30.45,ESE,115,1.0,1.0,76,0.00,,,0.00,WeatherCatV1.02B3,2013-01-05 15:40:00,
2013-01-05 09:45:00,44.2,37.5,30.45,ESE,115,0.0,2.0,77,0.00,,,0.00,WeatherCatV1.02B3,2013-01-05 15:45:00,
2013-01-05 09:50:00,44.6,37.5,30.44,SE,144,0.0,4.0,76,0.00,,,0.00,WeatherCatV1.02B3,2013-01-05 15:50:00,
2013-01-05 09:55:00,44.9,36.8,30.44,SE,144,0.0,0.0,73,0.00,,,0.00,WeatherCatV1.02B3,2013-01-05 15:55:00,
2013-01-05 10:00:00,45.3,37.2,30.44,SSE,166,0.0,5.0,73,0.00,,,0.00,WeatherCatV1.02B3,2013-01-05 16:00:00,
2013-01-05 10:05:00,45.5,37.0,30.44,SSE,166,0.0,0.0,72,0.00,,,0.00,WeatherCatV1.02B3,2013-01-05 16:05:00,
2013-01-05 10:10:00,45.6,37.5,30.44,SSE,165,0.0,4.0,73,0.00,,,0.00,WeatherCatV1.02B3,2013-01-05 16:10:00,
2013-01-05 10:15:00,45.8,37.6,30.43,ESE,120,0.0,4.0,73,0.00,,,0.00,WeatherCatV1.02B3,2013-01-05 16:15:00,
2013-01-05 10:20:00,46.1,37.6,30.43,South,181,0.0,4.0,72,0.00,,,0.00,WeatherCatV1.02B3,2013-01-05 16:20:00,
2013-01-05 10:25:00,46.1,36.9,30.43,South,181,0.0,1.0,70,0.00,,,0.00,WeatherCatV1.02B3,2013-01-05 16:25:00,
2013-01-05 10:30:00,46.0,36.8,30.43,South,181,1.0,3.0,70,0.00,,,0.00,WeatherCatV1.02B3,2013-01-05 16:30:00,
2013-01-05 10:35:00,45.8,36.6,30.42,SW,232,0.0,0.0,70,0.00,,,0.00,WeatherCatV1.02B3,2013-01-05 16:35:00,
2013-01-05 10:40:00,45.6,36.7,30.42,SW,232,0.0,1.0,71,0.00,,,0.00,WeatherCatV1.02B3,2013-01-05 16:40:00,
2013-01-05 10:45:00,45.8,36.9,30.42,SW,233,0.0,1.0,71,0.00,,,0.00,WeatherCatV1.02B3,2013-01-05 16:45:00,
2013-01-05 10:50:00,46.1,37.2,30.42,SW,233,0.0,0.0,71,0.00,,,0.00,WeatherCatV1.02B3,2013-01-05 16:50:00,
2013-01-05 10:55:00,46.5,36.9,30.41,SW,233,0.0,1.0,69,0.00,,,0.00,WeatherCatV1.02B3,2013-01-05 16:55:00,
2013-01-05 11:00:00,46.9,36.5,30.42,WNW,300,0.0,0.0,67,0.00,,,0.00,WeatherCatV1.02B3,2013-01-05 17:00:00,
2013-01-05 11:05:00,47.2,36.0,30.42,WNW,300,0.0,0.0,65,0.00,,,0.00,WeatherCatV1.02B3,2013-01-05 17:05:00,
2013-01-05 11:10:00,47.5,36.3,30.42,WNW,300,1.0,1.0,65,0.00,,,0.00,WeatherCatV1.02B3,2013-01-05 17:10:00,
2013-01-05 11:15:00,47.6,36.0,30.41,WSW,247,0.0,3.0,64,0.00,,,0.00,WeatherCatV1.02B3,2013-01-05 17:15:00,
2013-01-05 11:20:00,47.4,37.0,30.41,WSW,247,0.0,0.0,67,0.00,,,0.00,WeatherCatV1.02B3,2013-01-05 17:20:00,
2013-01-05 11:25:00,47.3,38.4,30.41,WSW,247,0.0,0.0,71,0.00,,,0.00,WeatherCatV1.02B3,2013-01-05 17:25:00,
2013-01-05 11:30:00,47.1,39.2,30.40,WSW,247,0.0,0.0,74,0.00,,,0.01,WeatherCatV1.02B3,2013-01-05 17:30:00,
2013-01-05 11:35:00,46.8,39.3,30.40,WSW,247,0.0,0.0,75,0.00,,,0.01,WeatherCatV1.02B3,2013-01-05 17:35:00,
2013-01-05 11:40:00,46.5,39.7,30.40,WSW,247,0.0,0.0,77,0.00,,,0.01,WeatherCatV1.02B3,2013-01-05 17:40:00,
2013-01-05 11:45:00,46.4,40.6,30.39,WSW,247,0.0,0.0,80,0.00,,,0.01,WeatherCatV1.02B3,2013-01-05 17:45:00,
2013-01-05 11:50:00,46.3,40.5,30.39,WSW,247,0.0,0.0,80,0.00,,,0.01,WeatherCatV1.02B3,2013-01-05 17:50:00,
2013-01-05 11:55:00,46.3,41.1,30.40,WSW,247,0.0,0.0,82,0.00,,,0.01,WeatherCatV1.02B3,2013-01-05 17:55:00,
2013-01-05 12:00:00,46.2,40.1,30.39,WSW,247,0.0,0.0,79,0.00,,,0.01,WeatherCatV1.02B3,2013-01-05 18:00:00,
2013-01-05 12:05:00,46.2,39.7,30.39,WSW,247,0.0,0.0,78,0.00,,,0.01,WeatherCatV1.02B3,2013-01-05 18:05:00,
2013-01-05 12:10:00,46.3,40.5,30.39,WSW,247,0.0,0.0,80,0.00,,,0.01,WeatherCatV1.02B3,2013-01-05 18:10:00,
2013-01-05 12:15:00,46.2,40.4,30.39,WSW,247,0.0,3.0,80,0.00,,,0.01,WeatherCatV1.02B3,2013-01-05 18:15:00,
2013-01-05 12:20:00,46.2,40.1,30.38,WSW,247,0.0,0.0,79,0.00,,,0.01,WeatherCatV1.02B3,2013-01-05 18:20:00,
2013-01-05 12:25:00,46.3,41.1,30.38,WSW,246,0.0,1.0,82,0.00,,,0.01,WeatherCatV1.02B3,2013-01-05 18:25:00,
2013-01-05 12:30:00,45.6,40.1,30.38,WSW,245,1.0,1.0,81,0.00,,,0.01,WeatherCatV1.02B3,2013-01-05 18:30:00,
2013-01-05 12:35:00,45.1,39.9,30.38,WSW,245,0.0,1.0,82,0.00,,,0.01,WeatherCatV1.02B3,2013-01-05 18:35:00,
2013-01-05 12:40:00,44.9,40.1,30.37,South,188,2.0,4.0,83,0.00,,,0.01,WeatherCatV1.02B3,2013-01-05 18:40:00,
2013-01-05 12:45:00,44.7,39.9,30.35,South,183,0.0,3.0,83,0.00,,,0.01,WeatherCatV1.02B3,2013-01-05 18:45:00,
2013-01-05 12:50:00,44.5,39.7,30.35,South,183,0.0,1.0,83,0.00,,,0.01,WeatherCatV1.02B3,2013-01-05 18:50:00,
2013-01-05 12:55:00,44.2,39.1,30.36,South,183,0.0,0.0,82,0.00,,,0.01,WeatherCatV1.02B3,2013-01-05 18:55:00,
2013-01-05 13:00:00,44.2,39.4,30.36,South,183,0.0,0.0,83,0.00,,,0.01,WeatherCatV1.02B3,2013-01-05 19:00:00,
2013-01-05 13:05:00,44.2,39.4,30.37,South,183,1.0,1.0,83,0.00,,,0.01,WeatherCatV1.02B3,2013-01-05 19:05:00,
2013-01-05 13:11:00,44.1,39.3,30.36,South,183,0.0,0.0,83,0.00,,,0.02,WeatherCatV1.02B3,2013-01-05 19:11:00,
2013-01-05 13:16:00,44.1,39.6,30.35,South,185,1.0,2.0,84,0.00,,,0.02,WeatherCatV1.02B3,2013-01-05 19:16:00,
2013-01-05 13:21:00,43.9,40.0,30.34,WSW,247,0.0,0.0,86,0.05,,,0.03,WeatherCatV1.02B3,2013-01-05 19:21:00,
2013-01-05 13:26:00,43.7,40.1,30.34,WSW,247,0.0,0.0,87,0.05,,,0.03,WeatherCatV1.02B3,2013-01-05 19:26:00,
2013-01-05 13:31:00,43.6,40.3,30.34,WSW,247,0.0,0.0,88,0.05,,,0.03,WeatherCatV1.02B3,2013-01-05 19:31:00,
2013-01-05 13:36:00,43.6,40.6,30.34,WSW,247,0.0,0.0,89,0.04,,,0.04,WeatherCatV1.02B3,2013-01-05 19:36:00,
2013-01-05 13:41:00,43.6,40.6,30.34,WSW,247,0.0,0.0,89,0.04,,,0.04,WeatherCatV1.02B3,2013-01-05 19:41:00,
2013-01-05 13:46:00,43.6,40.6,30.34,WSW,247,0.0,0.0,89,0.07,,,0.05,WeatherCatV1.02B3,2013-01-05 19:46:00,
2013-01-05 13:51:00,43.6,40.9,30.35,WSW,246,0.0,1.0,90,0.06,,,0.05,WeatherCatV1.02B3,2013-01-05 19:51:00,
2013-01-05 13:56:00,43.4,40.7,30.34,WSW,246,0.0,0.0,90,0.05,,,0.06,WeatherCatV1.02B3,2013-01-05 19:56:00,
2013-01-05 14:01:00,43.3,40.6,30.35,WSW,246,0.0,0.0,90,0.05,,,0.06,WeatherCatV1.02B3,2013-01-05 20:01:00,
2013-01-05 14:06:00,43.3,40.6,30.36,WSW,246,0.0,0.0,90,0.04,,,0.06,WeatherCatV1.02B3,2013-01-05 20:06:00,
2013-01-05 14:11:00,43.4,41.0,30.35,WSW,246,0.0,0.0,91,0.04,,,0.07,WeatherCatV1.02B3,2013-01-05 20:11:00,
2013-01-05 14:16:00,43.5,41.0,30.36,WSW,246,0.0,0.0,91,0.04,,,0.07,WeatherCatV1.02B3,2013-01-05 20:16:00,
2013-01-05 14:21:00,43.6,41.1,30.35,WSW,246,0.0,0.0,91,0.04,,,0.07,WeatherCatV1.02B3,2013-01-05 20:21:00,
2013-01-05 14:26:00,43.6,40.9,30.36,WSW,246,0.0,0.0,90,0.00,,,0.07,WeatherCatV1.02B3,2013-01-05 20:26:00,
2013-01-05 14:31:00,43.6,40.9,30.37,WSW,246,0.0,0.0,90,0.00,,,0.07,WeatherCatV1.02B3,2013-01-05 20:31:00,
2013-01-05 14:36:00,43.7,41.2,30.37,WSW,246,0.0,0.0,91,0.00,,,0.07,WeatherCatV1.02B3,2013-01-05 20:36:00,
2013-01-05 14:41:00,43.8,41.3,30.36,WSW,246,0.0,0.0,91,0.00,,,0.07,WeatherCatV1.02B3,2013-01-05 20:41:00,
2013-01-05 14:46:00,43.8,41.3,30.35,WSW,246,0.0,0.0,91,0.00,,,0.07,WeatherCatV1.02B3,2013-01-05 20:46:00,
2013-01-05 14:51:00,43.9,41.4,30.35,WSW,246,0.0,0.0,91,0.00,,,0.08,WeatherCatV1.02B3,2013-01-05 20:51:00,
2013-01-05 14:56:00,43.9,41.4,30.34,WSW,246,0.0,2.0,91,0.08,,,0.09,WeatherCatV1.02B3,2013-01-05 20:56:00,
2013-01-05 15:01:00,43.8,41.6,30.35,WSW,246,0.0,0.0,92,0.11,,,0.10,WeatherCatV1.02B3,2013-01-05 21:01:00,
2013-01-05 15:06:00,43.7,41.5,30.36,WSW,246,0.0,0.0,92,0.09,,,0.10,WeatherCatV1.02B3,2013-01-05 21:06:00,
2013-01-05 15:11:00,43.6,41.4,30.37,WSW,246,0.0,0.0,92,0.05,,,0.11,WeatherCatV1.02B3,2013-01-05 21:11:00,
2013-01-05 15:16:00,43.4,41.2,30.38,WSW,246,0.0,0.0,92,0.05,,,0.11,WeatherCatV1.02B3,2013-01-05 21:16:00,
2013-01-05 15:21:00,43.1,40.9,30.38,ESE,115,0.0,0.0,92,0.05,,,0.11,WeatherCatV1.02B3,2013-01-05 21:21:00,
2013-01-05 15:26:00,43.1,40.9,30.38,ESE,115,0.0,0.0,92,0.04,,,0.11,WeatherCatV1.02B3,2013-01-05 21:26:00,
2013-01-05 15:31:00,42.9,40.7,30.38,East,88,0.0,0.0,92,0.00,,,0.11,WeatherCatV1.02B3,2013-01-05 21:31:00,
2013-01-05 15:36:00,42.9,40.7,30.37,East,88,0.0,0.0,92,0.00,,,0.11,WeatherCatV1.02B3,2013-01-05 21:36:00,
2013-01-05 15:41:00,43.1,40.9,30.36,East,88,0.0,1.0,92,0.00,,,0.11,WeatherCatV1.02B3,2013-01-05 21:41:00,
2013-01-05 15:46:00,43.1,40.9,30.37,East,88,0.0,0.0,92,0.00,,,0.11,WeatherCatV1.02B3,2013-01-05 21:46:00,
2013-01-05 15:51:00,43.1,40.9,30.37,East,88,0.0,0.0,92,0.00,,,0.11,WeatherCatV1.02B3,2013-01-05 21:51:00,
2013-01-05 15:56:00,43.1,40.9,30.37,East,88,0.0,0.0,92,0.00,,,0.11,WeatherCatV1.02B3,2013-01-05 21:56:00,
2013-01-05 16:01:00,43.1,40.9,30.37,East,88,0.0,0.0,92,0.00,,,0.11,WeatherCatV1.02B3,2013-01-05 22:01:00,
2013-01-05 16:06:00,43.2,41.0,30.36,East,88,0.0,0.0,92,0.00,,,0.11,WeatherCatV1.02B3,2013-01-05 22:06:00,
2013-01-05 16:11:00,43.1,40.9,30.36,East,88,0.0,0.0,92,0.00,,,0.11,WeatherCatV1.02B3,2013-01-05 22:11:00,
2013-01-05 16:16:00,43.1,40.9,30.36,East,88,0.0,0.0,92,0.00,,,0.11,WeatherCatV1.02B3,2013-01-05 22:16:00,
2013-01-05 16:21:00,43.2,41.0,30.37,East,88,0.0,0.0,92,0.00,,,0.11,WeatherCatV1.02B3,2013-01-05 22:21:00,
2013-01-05 16:26:00,43.2,41.0,30.37,East,88,0.0,0.0,92,0.00,,,0.11,WeatherCatV1.02B3,2013-01-05 22:26:00,
2013-01-05 16:31:00,43.1,40.9,30.37,East,88,0.0,0.0,92,0.00,,,0.12,WeatherCatV1.02B3,2013-01-05 22:31:00,
2013-01-05 16:36:00,43.1,40.9,30.36,East,88,0.0,0.0,92,0.00,,,0.12,WeatherCatV1.02B3,2013-01-05 22:36:00,
2013-01-05 16:41:00,43.1,40.9,30.36,East,88,0.0,0.0,92,0.00,,,0.12,WeatherCatV1.02B3,2013-01-05 22:41:00,
2013-01-05 16:46:00,43.1,40.9,30.36,East,88,0.0,0.0,92,0.00,,,0.12,WeatherCatV1.02B3,2013-01-05 22:46:00,
2013-01-05 16:51:00,43.2,41.3,30.35,East,88,0.0,0.0,93,0.00,,,0.12,WeatherCatV1.02B3,2013-01-05 22:51:00,
2013-01-05 16:56:00,43.1,41.2,30.36,East,88,0.0,1.0,93,0.00,,,0.12,WeatherCatV1.02B3,2013-01-05 22:56:00,
2013-01-05 17:01:00,42.9,41.0,30.35,East,88,0.0,0.0,93,0.00,,,0.12,WeatherCatV1.02B3,2013-01-05 23:01:00,
2013-01-05 17:06:00,42.9,41.0,30.35,East,88,0.0,0.0,93,0.00,,,0.12,WeatherCatV1.02B3,2013-01-05 23:06:00,
2013-01-05 17:11:00,42.9,41.0,30.35,East,88,0.0,0.0,93,0.00,,,0.12,WeatherCatV1.02B3,2013-01-05 23:11:00,
2013-01-05 17:16:00,42.8,40.9,30.35,East,88,0.0,0.0,93,0.00,,,0.12,WeatherCatV1.02B3,2013-01-05 23:16:00,
2013-01-05 17:21:00,42.8,40.9,30.35,East,88,0.0,0.0,93,0.00,,,0.12,WeatherCatV1.02B3,2013-01-05 23:21:00,
2013-01-05 17:26:00,42.7,40.8,30.34,East,88,0.0,0.0,93,0.00,,,0.12,WeatherCatV1.02B3,2013-01-05 23:26:00,
2013-01-05 17:31:00,42.7,40.8,30.34,East,88,0.0,0.0,93,0.00,,,0.12,WeatherCatV1.02B3,2013-01-05 23:31:00,
2013-01-05 17:36:00,42.8,40.9,30.34,East,88,0.0,0.0,93,0.00,,,0.12,WeatherCatV1.02B3,2013-01-05 23:36:00,
2013-01-05 17:41:00,42.8,40.9,30.33,East,88,0.0,0.0,93,0.00,,,0.12,WeatherCatV1.02B3,2013-01-05 23:41:00,
2013-01-05 17:46:00,42.9,41.3,30.34,North,355,0.0,0.0,94,0.00,,,0.12,WeatherCatV1.02B3,2013-01-05 23:46:00,
2013-01-05 17:51:00,42.9,41.3,30.34,North,355,0.0,1.0,94,0.00,,,0.12,WeatherCatV1.02B3,2013-01-05 23:51:00,
2013-01-05 17:56:00,42.9,41.3,30.34,North,355,0.0,0.0,94,0.00,,,0.12,WeatherCatV1.02B3,2013-01-05 23:56:00,
2013-01-05 18:01:00,43.0,41.4,30.34,North,355,0.0,0.0,94,0.00,,,0.12,WeatherCatV1.02B3,2013-01-06 00:01:00,
2013-01-05 18:06:00,43.0,41.4,30.33,North,355,0.0,0.0,94,0.00,,,0.12,WeatherCatV1.02B3,2013-01-06 00:06:00,
2013-01-05 18:11:00,43.0,41.4,30.33,North,355,0.0,0.0,94,0.00,,,0.12,WeatherCatV1.02B3,2013-01-06 00:11:00,
2013-01-05 18:16:00,43.1,41.5,30.34,North,355,0.0,0.0,94,0.00,,,0.12,WeatherCatV1.02B3,2013-01-06 00:16:00,
2013-01-05 18:21:00,43.1,41.5,30.34,North,355,0.0,1.0,94,0.00,,,0.12,WeatherCatV1.02B3,2013-01-06 00:21:00,
2013-01-05 18:26:00,43.1,41.5,30.33,North,355,0.0,0.0,94,0.00,,,0.13,WeatherCatV1.02B3,2013-01-06 00:26:00,
2013-01-05 18:31:00,43.1,41.5,30.34,North,355,1.0,3.0,94,0.00,,,0.13,WeatherCatV1.02B3,2013-01-06 00:31:00,
2013-01-05 18:36:00,43.1,41.5,30.33,North,355,0.0,0.0,94,0.00,,,0.13,WeatherCatV1.02B3,2013-01-06 00:36:00,
2013-01-05 18:41:00,43.1,41.5,30.33,North,355,0.0,0.0,94,0.00,,,0.13,WeatherCatV1.02B3,2013-01-06 00:41:00,
2013-01-05 18:46:00,43.1,41.5,30.33,North,355,0.0,0.0,94,0.00,,,0.13,WeatherCatV1.02B3,2013-01-06 00:46:00,
2013-01-05 18:51:00,43.0,41.4,30.33,North,355,0.0,2.0,94,0.00,,,0.13,WeatherCatV1.02B3,2013-01-06 00:51:00,
2013-01-05 18:56:00,42.9,41.3,30.33,North,355,0.0,1.0,94,0.00,,,0.13,WeatherCatV1.02B3,2013-01-06 00:56:00,
2013-01-05 19:01:00,42.9,41.3,30.33,North,355,0.0,0.0,94,0.00,,,0.13,WeatherCatV1.02B3,2013-01-06 01:01:00,
2013-01-05 19:06:00,42.9,41.3,30.33,North,355,0.0,1.0,94,0.00,,,0.13,WeatherCatV1.02B3,2013-01-06 01:06:00,
2013-01-05 19:11:00,42.9,41.3,30.33,North,355,0.0,0.0,94,0.00,,,0.13,WeatherCatV1.02B3,2013-01-06 01:11:00,
2013-01-05 19:16:00,42.8,41.2,30.33,North,355,0.0,0.0,94,0.00,,,0.13,WeatherCatV1.02B3,2013-01-06 01:16:00,
2013-01-05 19:21:00,42.8,41.2,30.33,North,355,0.0,0.0,94,0.00,,,0.13,WeatherCatV1.02B3,2013-01-06 01:21:00,
2013-01-05 19:26:00,42.8,41.2,30.34,North,355,0.0,0.0,94,0.00,,,0.13,WeatherCatV1.02B3,2013-01-06 01:26:00,
2013-01-05 19:31:00,42.8,41.2,30.34,North,355,0.0,0.0,94,0.00,,,0.13,WeatherCatV1.02B3,2013-01-06 01:31:00,
2013-01-05 19:36:00,42.8,41.2,30.34,North,355,0.0,0.0,94,0.00,,,0.13,WeatherCatV1.02B3,2013-01-06 01:36:00,
2013-01-05 19:41:00,42.8,41.2,30.34,North,355,0.0,0.0,94,0.00,,,0.13,WeatherCatV1.02B3,2013-01-06 01:41:00,
2013-01-05 19:46:00,42.8,41.2,30.34,North,355,0.0,0.0,94,0.00,,,0.13,WeatherCatV1.02B3,2013-01-06 01:46:00,
2013-01-05 19:51:00,42.8,41.2,30.34,North,355,0.0,0.0,94,0.00,,,0.13,WeatherCatV1.02B3,2013-01-06 01:51:00,
2013-01-05 19:56:00,42.9,41.3,30.34,North,355,0.0,0.0,94,0.00,,,0.13,WeatherCatV1.02B3,2013-01-06 01:56:00,
2013-01-05 20:01:00,42.9,41.3,30.34,North,355,0.0,0.0,94,0.00,,,0.13,WeatherCatV1.02B3,2013-01-06 02:01:00,
2013-01-05 20:06:00,42.9,41.3,30.34,North,355,0.0,0.0,94,0.00,,,0.13,WeatherCatV1.02B3,2013-01-06 02:06:00,
2013-01-05 20:11:00,43.0,41.7,30.33,North,355,0.0,0.0,95,0.00,,,0.13,WeatherCatV1.02B3,2013-01-06 02:11:00,
2013-01-05 20:16:00,43.0,41.7,30.33,North,355,0.0,0.0,95,0.00,,,0.13,WeatherCatV1.02B3,2013-01-06 02:16:00,
2013-01-05 20:21:00,42.9,41.6,30.33,North,355,0.0,0.0,95,0.00,,,0.13,WeatherCatV1.02B3,2013-01-06 02:21:00,
2013-01-05 20:26:00,42.9,41.6,30.33,North,355,0.0,0.0,95,0.00,,,0.13,WeatherCatV1.02B3,2013-01-06 02:26:00,
2013-01-05 20:31:00,42.9,41.6,30.34,North,355,0.0,0.0,95,0.00,,,0.13,WeatherCatV1.02B3,2013-01-06 02:31:00,
2013-01-05 20:36:00,42.9,41.6,30.33,North,355,0.0,0.0,95,0.00,,,0.13,WeatherCatV1.02B3,2013-01-06 02:36:00,
2013-01-05 20:41:00,42.9,41.6,30.34,North,355,0.0,0.0,95,0.00,,,0.13,WeatherCatV1.02B3,2013-01-06 02:41:00,
2013-01-05 20:46:00,42.9,41.6,30.34,North,355,0.0,0.0,95,0.00,,,0.13,WeatherCatV1.02B3,2013-01-06 02:46:00,
2013-01-05 20:51:00,42.9,41.6,30.34,North,355,0.0,0.0,95,0.00,,,0.13,WeatherCatV1.02B3,2013-01-06 02:51:00,
2013-01-05 20:56:00,43.0,41.7,30.34,SSW,192,2.0,3.0,95,0.00,,,0.13,WeatherCatV1.02B3,2013-01-06 02:56:00,
2013-01-05 21:01:00,42.9,41.6,30.33,SSW,192,0.0,1.0,95,0.00,,,0.13,WeatherCatV1.02B3,2013-01-06 03:01:00,
2013-01-05 21:06:00,42.9,41.6,30.33,SSW,192,0.0,0.0,95,0.00,,,0.13,WeatherCatV1.02B3,2013-01-06 03:06:00,
2013-01-05 21:11:00,42.9,41.6,30.33,SSW,192,0.0,0.0,95,0.00,,,0.13,WeatherCatV1.02B3,2013-01-06 03:11:00,
2013-01-05 21:16:00,42.8,41.5,30.33,SSW,192,0.0,2.0,95,0.00,,,0.13,WeatherCatV1.02B3,2013-01-06 03:16:00,
2013-01-05 21:21:00,42.8,41.5,30.34,SSW,192,0.0,1.0,95,0.00,,,0.13,WeatherCatV1.02B3,2013-01-06 03:21:00,
2013-01-05 21:26:00,42.8,41.5,30.34,SSW,192,0.0,0.0,95,0.00,,,0.13,WeatherCatV1.02B3,2013-01-06 03:26:00,
2013-01-05 21:31:00,42.7,41.4,30.34,SSW,192,0.0,0.0,95,0.00,,,0.13,WeatherCatV1.02B3,2013-01-06 03:31:00,
2013-01-05 21:36:00,42.8,41.5,30.34,SSW,192,0.0,0.0,95,0.00,,,0.13,WeatherCatV1.02B3,2013-01-06 03:36:00,
2013-01-05 21:41:00,42.7,41.4,30.34,SSW,192,0.0,0.0,95,0.00,,,0.13,WeatherCatV1.02B3,2013-01-06 03:41:00,
2013-01-05 21:46:00,42.7,41.4,30.33,SSW,192,0.0,0.0,95,0.00,,,0.13,WeatherCatV1.02B3,2013-01-06 03:46:00,
2013-01-05 21:51:00,42.8,41.5,30.34,SSW,192,0.0,2.0,95,0.00,,,0.13,WeatherCatV1.02B3,2013-01-06 03:51:00,
2013-01-05 21:56:00,43.0,41.7,30.34,SSE,158,2.0,5.0,95,0.00,,,0.13,WeatherCatV1.02B3,2013-01-06 03:56:00,
2013-01-05 22:01:00,43.1,41.8,30.34,South,171,0.0,0.0,95,0.00,,,0.13,WeatherCatV1.02B3,2013-01-06 04:01:00,
2013-01-05 22:06:00,43.2,41.9,30.34,South,171,0.0,0.0,95,0.00,,,0.13,WeatherCatV1.02B3,2013-01-06 04:06:00,
2013-01-05 22:11:00,43.2,41.9,30.34,South,171,0.0,1.0,95,0.00,,,0.13,WeatherCatV1.02B3,2013-01-06 04:11:00,
2013-01-05 22:16:00,43.2,41.9,30.34,South,171,4.0,4.0,95,0.00,,,0.13,WeatherCatV1.02B3,2013-01-06 04:16:00,
2013-01-05 22:21:00,43.2,41.9,30.33,South,171,0.0,1.0,95,0.00,,,0.13,WeatherCatV1.02B3,2013-01-06 04:21:00,
2013-01-05 22:26:00,43.2,41.9,30.33,South,171,0.0,4.0,95,0.00,,,0.13,WeatherCatV1.02B3,2013-01-06 04:26:00,
2013-01-05 22:31:00,43.2,41.9,30.33,South,171,0.0,0.0,95,0.00,,,0.13,WeatherCatV1.02B3,2013-01-06 04:31:00,
2013-01-05 22:36:00,43.2,41.9,30.33,South,171,1.0,4.0,95,0.00,,,0.13,WeatherCatV1.02B3,2013-01-06 04:36:00,
2013-01-05 22:41:00,43.2,41.9,30.32,South,171,0.0,0.0,95,0.00,,,0.13,WeatherCatV1.02B3,2013-01-06 04:41:00,
2013-01-05 22:46:00,43.2,41.9,30.32,South,171,0.0,2.0,95,0.00,,,0.13,WeatherCatV1.02B3,2013-01-06 04:46:00,
2013-01-05 22:51:00,43.1,41.8,30.33,South,171,0.0,1.0,95,0.00,,,0.13,WeatherCatV1.02B3,2013-01-06 04:51:00,
2013-01-05 22:56:00,43.1,41.8,30.32,South,171,0.0,0.0,95,0.00,,,0.13,WeatherCatV1.02B3,2013-01-06 04:56:00,
2013-01-05 23:00:00,43.1,41.8,30.32,South,171,0.0,0.0,95,0.00,,,0.13,WeatherCatV1.02B3,2013-01-06 05:00:00,
2013-01-05 23:05:00,43.1,41.8,30.32,South,171,0.0,0.0,95,0.00,,,0.13,WeatherCatV1.02B3,2013-01-06 05:05:00,
2013-01-05 23:10:00,43.1,41.8,30.32,South,171,0.0,0.0,95,0.00,,,0.13,WeatherCatV1.02B3,2013-01-06 05:10:00,
2013-01-05 23:15:00,43.1,41.8,30.32,South,171,0.0,1.0,95,0.00,,,0.13,WeatherCatV1.02B3,2013-01-06 05:15:00,
2013-01-05 23:20:00,43.1,41.8,30.32,South,171,0.0,0.0,95,0.00,,,0.13,WeatherCatV1.02B3,2013-01-06 05:20:00,
2013-01-05 23:25:00,43.1,41.8,30.32,South,171,0.0,0.0,95,0.00,,,0.13,WeatherCatV1.02B3,2013-01-06 05:25:00,
2013-01-05 23:30:00,43.1,41.8,30.32,South,171,0.0,0.0,95,0.00,,,0.13,WeatherCatV1.02B3,2013-01-06 05:30:00,
2013-01-05 23:35:00,43.2,41.9,30.32,South,171,0.0,0.0,95,0.00,,,0.13,WeatherCatV1.02B3,2013-01-06 05:35:00,
2013-01-05 23:40:00,43.2,41.9,30.32,South,171,0.0,0.0,95,0.00,,,0.13,WeatherCatV1.02B3,2013-01-06 05:40:00,
2013-01-05 23:45:00,43.1,41.8,30.32,South,171,0.0,0.0,95,0.00,,,0.13,WeatherCatV1.02B3,2013-01-06 05:45:00,
2013-01-05 23:50:00,43.1,41.8,30.32,South,171,0.0,0.0,95,0.00,,,0.13,WeatherCatV1.02B3,2013-01-06 05:50:00,
2013-01-05 23:55:00,43.1,41.8,30.32,South,171,0.0,0.0,95,0.00,,,0.13,WeatherCatV1.02B3,2013-01-06 05:55:00,